createdAt,value
2022-08-25T00:01:29.699Z,18.29
2022-08-25T00:03:59.710Z,18.30
2022-08-25T00:06:26.792Z,18.28
2022-08-25T00:08:53.499Z,18.28
2022-08-25T00:11:23.900Z,18.26
2022-08-25T00:13:54.186Z,18.27
2022-08-25T00:16:22.432Z,18.24
2022-08-25T00:18:53.070Z,18.24
2022-08-25T00:21:20.182Z,18.22
2022-08-25T00:23:47.088Z,18.19
2022-08-25T00:26:15.765Z,18.17
2022-08-25T00:28:44.252Z,18.16
2022-08-25T00:31:16.978Z,18.17
2022-08-25T00:33:45.256Z,18.17
2022-08-25T00:36:12.641Z,18.14
2022-08-25T00:38:41.014Z,18.14
2022-08-25T00:41:10.895Z,18.14
2022-08-25T00:43:45.817Z,18.12
2022-08-25T00:46:20.915Z,18.11
2022-08-25T00:48:52.458Z,18.08
2022-08-25T00:51:27.934Z,18.07
2022-08-25T00:53:55.000Z,18.06
2022-08-25T00:56:22.159Z,18.07
2022-08-25T00:58:49.385Z,18.04
2022-08-25T01:01:16.114Z,18.04
2022-08-25T01:03:42.755Z,18.01
2022-08-25T01:06:11.630Z,17.97
2022-08-25T01:08:38.821Z,17.95
2022-08-25T01:11:08.996Z,17.95
2022-08-25T01:13:40.467Z,17.92
2022-08-25T01:16:08.413Z,17.91
2022-08-25T01:18:56.750Z,17.88
2022-08-25T01:21:26.075Z,17.85
2022-08-25T01:23:53.341Z,17.84
2022-08-25T01:26:30.221Z,17.83
2022-08-25T01:29:16.313Z,17.81
2022-08-25T01:31:43.137Z,17.78
2022-08-25T01:34:12.351Z,17.77
2022-08-25T01:36:40.686Z,17.74
2022-08-25T01:39:07.411Z,17.73
2022-08-25T01:41:33.978Z,17.73
2022-08-25T01:44:07.216Z,17.72
2022-08-25T01:46:40.871Z,17.74
2022-08-25T01:49:07.685Z,17.75
2022-08-25T01:51:42.451Z,17.76
2022-08-25T01:54:09.225Z,17.75
2022-08-25T01:56:36.254Z,17.74
2022-08-25T01:59:03.140Z,17.75
2022-08-25T02:01:29.925Z,17.77
2022-08-25T02:03:57.409Z,17.75
2022-08-25T02:06:32.345Z,17.73
2022-08-25T02:09:02.824Z,17.70
2022-08-25T02:11:29.741Z,17.69
2022-08-25T02:13:56.682Z,17.68
2022-08-25T02:16:33.190Z,17.68
2022-08-25T02:19:00.758Z,17.66
2022-08-25T02:21:28.323Z,17.66
2022-08-25T02:23:55.212Z,17.66
2022-08-25T02:26:22.403Z,17.66
2022-08-25T02:28:51.387Z,17.66
2022-08-25T02:31:20.075Z,17.65
2022-08-25T02:33:47.088Z,17.63
2022-08-25T02:36:13.928Z,17.64
2022-08-25T02:38:40.911Z,17.63
2022-08-25T02:41:13.842Z,17.63
2022-08-25T02:43:42.933Z,17.61
2022-08-25T02:46:11.654Z,17.61
2022-08-25T02:48:40.046Z,17.61
2022-08-25T02:51:08.885Z,17.60
2022-08-25T02:53:39.661Z,17.60
2022-08-25T02:56:10.847Z,17.59
2022-08-25T02:58:38.482Z,17.58
2022-08-25T03:01:06.842Z,17.55
2022-08-25T03:03:38.776Z,17.55
2022-08-25T03:06:08.736Z,17.54
2022-08-25T03:08:37.361Z,17.54
2022-08-25T03:11:05.768Z,17.54
2022-08-25T03:13:32.718Z,17.53
2022-08-25T03:16:00.741Z,17.53
2022-08-25T03:18:27.808Z,17.54
2022-08-25T03:20:55.063Z,17.55
2022-08-25T03:23:21.700Z,17.56
2022-08-25T03:26:06.770Z,17.54
2022-08-25T03:28:33.966Z,17.53
2022-08-25T03:31:01.724Z,17.55
2022-08-25T03:33:30.248Z,17.54
2022-08-25T03:35:57.016Z,17.54
2022-08-25T03:38:25.409Z,17.53
2022-08-25T03:40:52.798Z,17.54
2022-08-25T03:43:20.353Z,17.55
2022-08-25T03:45:47.963Z,17.55
2022-08-25T03:48:16.431Z,17.56
2022-08-25T03:50:52.256Z,17.56
2022-08-25T03:53:20.295Z,17.55
2022-08-25T03:55:47.524Z,17.56
2022-08-25T03:58:14.384Z,17.57
2022-08-25T04:00:41.289Z,17.57
2022-08-25T04:03:08.328Z,17.57
2022-08-25T04:05:35.372Z,17.56
2022-08-25T04:08:02.289Z,17.57
2022-08-25T04:10:29.787Z,17.58
2022-08-25T04:12:57.085Z,17.57
2022-08-25T04:15:24.960Z,17.59
2022-08-25T04:17:59.080Z,17.59
2022-08-25T04:20:26.442Z,17.59
2022-08-25T04:22:53.142Z,17.58
2022-08-25T04:25:19.886Z,17.60
2022-08-25T04:27:46.655Z,17.58
2022-08-25T04:30:13.852Z,17.59
2022-08-25T04:32:40.620Z,17.60
2022-08-25T04:35:07.624Z,17.67
2022-08-25T04:37:34.424Z,17.71
2022-08-25T04:40:01.937Z,17.74
2022-08-25T04:42:28.707Z,17.77
2022-08-25T04:44:55.877Z,17.84
2022-08-25T04:47:22.808Z,17.87
2022-08-25T04:49:49.757Z,17.91
2022-08-25T04:52:16.430Z,17.89
2022-08-25T04:54:44.109Z,17.92
2022-08-25T04:57:11.256Z,17.94
2022-08-25T04:59:38.563Z,17.92
2022-08-25T05:02:06.724Z,17.94
2022-08-25T05:04:35.860Z,17.87
2022-08-25T05:07:04.048Z,17.84
2022-08-25T05:09:32.666Z,17.84
2022-08-25T05:12:01.209Z,17.81
2022-08-25T05:14:28.812Z,17.85
2022-08-25T05:16:56.413Z,17.88
2022-08-25T05:19:24.268Z,17.97
2022-08-25T05:21:51.833Z,18.10
2022-08-25T05:24:18.899Z,18.12
2022-08-25T05:26:45.996Z,18.13
2022-08-25T05:29:12.826Z,18.18
2022-08-25T05:31:43.081Z,18.10
2022-08-25T05:34:12.384Z,18.19
2022-08-25T05:36:43.353Z,18.27
2022-08-25T05:39:11.090Z,18.26
2022-08-25T05:41:38.395Z,18.23
2022-08-25T05:44:05.609Z,18.27
2022-08-25T05:46:32.964Z,18.30
2022-08-25T05:48:59.666Z,18.30
2022-08-25T05:51:26.718Z,18.41
2022-08-25T05:53:54.134Z,18.41
2022-08-25T05:56:21.466Z,18.36
2022-08-25T05:58:49.131Z,18.41
2022-08-25T06:01:44.931Z,18.42
2022-08-25T06:04:12.821Z,18.48
2022-08-25T06:06:40.121Z,18.55
2022-08-25T06:09:08.832Z,18.63
2022-08-25T06:11:37.568Z,18.66
2022-08-25T06:14:04.829Z,18.71
2022-08-25T06:16:31.941Z,18.65
2022-08-25T06:18:58.606Z,18.76
2022-08-25T06:21:25.355Z,18.90
2022-08-25T06:23:52.772Z,19.00
2022-08-25T06:26:21.487Z,19.06
2022-08-25T06:28:50.769Z,19.11
2022-08-25T06:31:18.892Z,19.12
2022-08-25T06:33:46.390Z,19.36
2022-08-25T06:36:13.140Z,19.52
2022-08-25T06:38:40.077Z,19.51
2022-08-25T06:41:08.637Z,19.69
2022-08-25T06:43:35.487Z,19.74
2022-08-25T06:46:13.548Z,19.92
2022-08-25T06:48:40.988Z,19.96
2022-08-25T06:51:14.109Z,20.50
2022-08-25T06:53:41.698Z,20.71
2022-08-25T06:56:08.666Z,20.45
2022-08-25T06:58:35.950Z,20.53
2022-08-25T07:01:20.284Z,20.48
2022-08-25T07:03:47.571Z,20.38
2022-08-25T07:06:16.552Z,20.79
2022-08-25T07:08:46.391Z,21.10
2022-08-25T07:11:16.679Z,20.92
2022-08-25T07:13:45.695Z,20.87
2022-08-25T07:16:15.413Z,20.79
2022-08-25T07:18:44.188Z,21.03
2022-08-25T07:21:12.520Z,21.29
2022-08-25T07:23:40.751Z,21.15
2022-08-25T07:26:37.804Z,21.53
2022-08-25T07:29:09.445Z,21.58
2022-08-25T07:31:36.303Z,22.01
2022-08-25T07:34:22.902Z,22.56
2022-08-25T07:36:49.569Z,22.89
2022-08-25T07:39:17.597Z,22.95
2022-08-25T07:41:51.972Z,23.14
2022-08-25T07:44:21.307Z,23.51
2022-08-25T07:46:50.382Z,23.42
2022-08-25T07:49:23.241Z,23.60
2022-08-25T07:52:04.995Z,23.17
2022-08-25T07:54:34.924Z,23.24
2022-08-25T07:57:03.981Z,23.69
2022-08-25T07:59:39.752Z,23.82
2022-08-25T08:02:18.543Z,23.75
2022-08-25T08:04:48.915Z,23.90
2022-08-25T08:07:22.940Z,24.14
2022-08-25T08:09:56.096Z,24.07
2022-08-25T08:12:23.555Z,23.56
2022-08-25T08:14:51.788Z,24.28
2022-08-25T08:17:18.558Z,24.57
2022-08-25T08:19:45.930Z,24.44
2022-08-25T08:22:17.005Z,24.38
2022-08-25T08:24:54.476Z,24.50
2022-08-25T08:27:23.221Z,25.25
2022-08-25T08:29:50.187Z,25.45
2022-08-25T08:32:18.628Z,25.36
2022-08-25T08:34:46.635Z,25.19
2022-08-25T08:37:18.725Z,24.90
2022-08-25T08:39:48.848Z,24.85
2022-08-25T08:42:33.825Z,25.28
2022-08-25T08:45:18.458Z,25.82
2022-08-25T08:47:56.142Z,25.70
2022-08-25T08:50:37.921Z,25.62
2022-08-25T08:53:15.043Z,25.66
2022-08-25T08:56:07.010Z,25.80
2022-08-25T08:58:43.771Z,25.85
2022-08-25T09:01:16.179Z,26.04
2022-08-25T09:03:47.557Z,26.23
2022-08-25T09:06:34.159Z,26.70
2022-08-25T09:09:06.832Z,26.44
2022-08-25T09:11:52.290Z,26.84
2022-08-25T09:14:38.551Z,27.12
2022-08-25T09:17:39.653Z,27.12
2022-08-25T09:20:21.619Z,27.61
2022-08-25T09:22:54.303Z,27.72
2022-08-25T09:25:52.191Z,28.01
2022-08-25T09:28:21.936Z,28.27
2022-08-25T09:31:00.455Z,28.39
2022-08-25T09:33:30.214Z,28.55
2022-08-25T09:36:00.879Z,29.46
2022-08-25T09:38:32.682Z,29.58
2022-08-25T09:41:01.390Z,29.31
2022-08-25T09:43:35.637Z,29.60
2022-08-25T09:46:05.308Z,29.56
2022-08-25T09:48:40.811Z,29.51
2022-08-25T09:51:38.059Z,29.53
2022-08-25T09:54:15.842Z,30.17
2022-08-25T09:57:02.061Z,30.70
2022-08-25T09:59:35.857Z,29.38
2022-08-25T10:02:24.262Z,29.19
2022-08-25T10:04:52.228Z,29.86
2022-08-25T10:07:26.795Z,29.85
2022-08-25T10:09:59.228Z,30.18
2022-08-25T10:12:43.060Z,30.03
2022-08-25T10:15:29.795Z,30.75
2022-08-25T10:18:17.665Z,30.51
2022-08-25T10:20:45.019Z,30.85
2022-08-25T10:23:14.349Z,31.33
2022-08-25T10:25:59.110Z,30.81
2022-08-25T10:28:59.206Z,30.27
2022-08-25T10:31:31.836Z,30.27
2022-08-25T10:34:21.500Z,30.99
2022-08-25T10:36:58.300Z,31.26
2022-08-25T10:39:40.748Z,31.98
2022-08-25T10:42:26.241Z,31.49
2022-08-25T10:45:41.543Z,31.97
2022-08-25T10:48:52.713Z,31.54
2022-08-25T10:51:46.907Z,31.90
2022-08-25T10:54:31.900Z,31.68
2022-08-25T10:57:02.381Z,31.67
2022-08-25T10:59:55.477Z,32.41
2022-08-25T11:02:44.982Z,33.10
2022-08-25T11:05:26.944Z,31.88
2022-08-25T11:08:40.375Z,32.02
2022-08-25T11:11:21.651Z,32.56
2022-08-25T11:13:54.339Z,32.41
2022-08-25T11:16:26.315Z,33.08
2022-08-25T11:19:05.597Z,33.40
2022-08-25T11:22:04.484Z,33.19
2022-08-25T11:24:40.125Z,33.81
2022-08-25T11:27:13.689Z,33.14
2022-08-25T11:29:44.246Z,32.68
2022-08-25T11:32:11.137Z,32.64
2022-08-25T11:34:42.429Z,32.58
2022-08-25T11:37:27.945Z,33.14
2022-08-25T11:40:13.821Z,33.45
2022-08-25T11:42:59.440Z,32.71
2022-08-25T11:45:54.151Z,32.21
2022-08-25T11:48:48.881Z,33.12
2022-08-25T11:51:31.092Z,33.34
2022-08-25T11:54:30.237Z,32.19
2022-08-25T11:57:02.334Z,32.59
2022-08-25T11:59:51.651Z,32.75
2022-08-25T12:02:39.235Z,33.02
2022-08-25T12:05:24.241Z,33.44
2022-08-25T12:08:13.827Z,34.05
2022-08-25T12:11:10.636Z,34.77
2022-08-25T12:13:43.738Z,32.80
2022-08-25T12:16:36.307Z,33.26
2022-08-25T12:19:49.542Z,34.29
2022-08-25T12:22:16.141Z,33.37
2022-08-25T12:24:48.066Z,33.84
2022-08-25T12:27:24.829Z,34.72
2022-08-25T12:30:18.473Z,35.07
2022-08-25T12:33:02.293Z,35.07
2022-08-25T12:35:49.778Z,35.22
2022-08-25T12:38:27.459Z,34.85
2022-08-25T12:41:02.578Z,35.21
2022-08-25T12:43:37.665Z,34.73
2022-08-25T12:46:29.847Z,34.49
2022-08-25T12:49:05.070Z,34.02
2022-08-25T12:51:48.453Z,33.41
2022-08-25T12:54:22.292Z,34.01
2022-08-25T12:56:59.429Z,34.63
2022-08-25T12:59:36.719Z,34.56
2022-08-25T13:02:18.653Z,34.34
2022-08-25T13:05:03.482Z,34.66
2022-08-25T13:08:15.195Z,34.61
2022-08-25T13:10:42.265Z,34.24
2022-08-25T13:13:09.008Z,34.76
2022-08-25T13:15:48.740Z,35.09
2022-08-25T13:18:29.740Z,35.76
2022-08-25T13:21:16.163Z,35.18
2022-08-25T13:23:46.441Z,35.04
2022-08-25T13:26:23.800Z,35.79
2022-08-25T13:29:14.455Z,36.38
2022-08-25T13:31:56.469Z,36.04
2022-08-25T13:34:34.656Z,35.87
2022-08-25T13:37:25.889Z,34.76
2022-08-25T13:40:07.246Z,35.77
2022-08-25T13:42:39.303Z,36.18
2022-08-25T13:45:15.638Z,36.53
2022-08-25T13:47:45.774Z,35.31
2022-08-25T13:50:28.491Z,34.36
2022-08-25T13:53:02.109Z,34.85
2022-08-25T13:55:50.533Z,35.48
2022-08-25T13:58:24.777Z,35.61
2022-08-25T14:01:23.558Z,35.09
2022-08-25T14:04:17.653Z,36.09
2022-08-25T14:06:44.464Z,36.42
2022-08-25T14:09:18.061Z,35.58
2022-08-25T14:11:56.951Z,36.49
2022-08-25T14:14:23.500Z,36.03
2022-08-25T14:17:28.731Z,34.50
2022-08-25T14:19:58.612Z,35.30
2022-08-25T14:22:26.096Z,33.92
2022-08-25T14:24:53.975Z,33.03
2022-08-25T14:27:20.831Z,33.29
2022-08-25T14:29:51.018Z,32.07
2022-08-25T14:32:19.436Z,33.23
2022-08-25T14:34:46.813Z,33.98
2022-08-25T14:37:17.109Z,34.07
2022-08-25T14:39:44.869Z,34.74
2022-08-25T14:42:13.234Z,35.31
2022-08-25T14:44:40.063Z,35.59
2022-08-25T14:47:07.756Z,34.86
2022-08-25T14:49:40.846Z,35.04
2022-08-25T14:52:25.025Z,35.36
2022-08-25T14:54:51.865Z,35.67
2022-08-25T14:57:19.227Z,36.05
2022-08-25T14:59:46.240Z,36.24
2022-08-25T15:02:20.083Z,36.44
2022-08-25T15:05:05.834Z,35.81
2022-08-25T15:07:52.003Z,36.08
2022-08-25T15:10:19.827Z,36.38
2022-08-25T15:12:51.200Z,36.42
2022-08-25T15:15:21.050Z,34.75
2022-08-25T15:17:49.426Z,34.11
2022-08-25T15:20:17.069Z,34.18
2022-08-25T15:22:45.440Z,34.21
2022-08-25T15:25:12.421Z,33.22
2022-08-25T15:27:39.081Z,32.89
2022-08-25T15:30:06.767Z,32.68
2022-08-25T15:32:33.950Z,33.23
2022-08-25T15:35:00.963Z,33.61
2022-08-25T15:37:27.859Z,33.39
2022-08-25T15:39:54.572Z,33.57
2022-08-25T15:42:21.708Z,33.98
2022-08-25T15:44:53.367Z,34.30
2022-08-25T15:47:21.123Z,34.17
2022-08-25T15:49:47.925Z,33.95
2022-08-25T15:52:14.782Z,33.76
2022-08-25T15:54:41.521Z,33.46
2022-08-25T15:57:08.785Z,32.64
2022-08-25T15:59:40.271Z,32.02
2022-08-25T16:02:15.241Z,31.92
2022-08-25T16:04:42.312Z,31.62
2022-08-25T16:07:09.648Z,31.30
2022-08-25T16:09:41.573Z,31.35
2022-08-25T16:12:08.786Z,30.86
2022-08-25T16:14:36.733Z,30.88
2022-08-25T16:17:04.452Z,30.22
2022-08-25T16:19:31.565Z,30.13
2022-08-25T16:22:00.546Z,30.08
2022-08-25T16:24:27.457Z,29.79
2022-08-25T16:26:55.890Z,29.86
2022-08-25T16:29:23.511Z,29.58
2022-08-25T16:31:53.503Z,29.40
2022-08-25T16:34:22.335Z,29.38
2022-08-25T16:36:52.359Z,29.34
2022-08-25T16:39:20.644Z,29.00
2022-08-25T16:41:47.475Z,28.85
2022-08-25T16:44:14.221Z,28.81
2022-08-25T16:46:42.319Z,28.81
2022-08-25T16:49:13.689Z,28.76
2022-08-25T16:51:42.935Z,28.75
2022-08-25T16:54:30.048Z,28.28
2022-08-25T16:56:59.871Z,27.99
2022-08-25T16:59:26.939Z,27.99
2022-08-25T17:01:53.921Z,27.84
2022-08-25T17:04:21.700Z,27.82
2022-08-25T17:06:58.778Z,27.57
2022-08-25T17:09:25.410Z,27.44
2022-08-25T17:11:56.684Z,27.27
2022-08-25T17:14:23.935Z,27.14
2022-08-25T17:16:54.625Z,27.11
2022-08-25T17:19:22.222Z,27.02
2022-08-25T17:22:08.772Z,26.90
2022-08-25T17:24:35.958Z,26.80
2022-08-25T17:27:07.344Z,26.67
2022-08-25T17:29:34.457Z,26.53
2022-08-25T17:32:01.656Z,26.55
2022-08-25T17:34:29.211Z,26.54
2022-08-25T17:36:57.478Z,26.50
2022-08-25T17:39:25.200Z,26.43
2022-08-25T17:41:52.521Z,26.34
2022-08-25T17:44:19.872Z,26.31
2022-08-25T17:46:48.020Z,26.29
2022-08-25T17:49:16.283Z,26.27
2022-08-25T17:51:43.146Z,26.22
2022-08-25T17:54:10.992Z,26.16
2022-08-25T17:56:38.040Z,26.09
2022-08-25T17:59:04.960Z,26.05
2022-08-25T18:01:33.980Z,26.00
2022-08-25T18:04:01.277Z,25.97
2022-08-25T18:06:29.652Z,25.96
2022-08-25T18:08:59.920Z,25.92
2022-08-25T18:11:28.032Z,25.84
2022-08-25T18:13:55.402Z,25.81
2022-08-25T18:16:23.191Z,25.79
2022-08-25T18:18:51.484Z,25.76
2022-08-25T18:21:20.537Z,25.74
2022-08-25T18:23:49.486Z,25.70
2022-08-25T18:26:16.144Z,25.66
2022-08-25T18:28:43.819Z,25.61
2022-08-25T18:31:13.263Z,25.55
2022-08-25T18:33:42.444Z,25.50
2022-08-25T18:36:09.782Z,25.48
2022-08-25T18:38:58.270Z,25.45
2022-08-25T18:41:25.833Z,25.41
2022-08-25T18:43:53.120Z,25.38
2022-08-25T18:46:22.743Z,25.33
2022-08-25T18:48:52.882Z,25.27
2022-08-25T18:51:22.970Z,25.26
2022-08-25T18:53:50.973Z,25.24
2022-08-25T18:56:18.867Z,25.20
2022-08-25T18:58:46.606Z,25.19
2022-08-25T19:01:15.985Z,25.11
2022-08-25T19:03:43.455Z,25.11
2022-08-25T19:06:11.094Z,25.10
2022-08-25T19:08:41.816Z,25.07
2022-08-25T19:11:09.967Z,25.08
2022-08-25T19:13:37.568Z,25.05
2022-08-25T19:16:20.470Z,25.02
2022-08-25T19:18:48.716Z,25.01
2022-08-25T19:21:15.870Z,24.99
2022-08-25T19:23:42.642Z,24.96
2022-08-25T19:26:13.913Z,24.91
2022-08-25T19:28:48.852Z,24.89
2022-08-25T19:31:33.313Z,24.87
2022-08-25T19:34:00.859Z,24.84
2022-08-25T19:36:29.305Z,24.80
2022-08-25T19:39:01.314Z,24.77
2022-08-25T19:41:30.863Z,24.73
2022-08-25T19:43:58.499Z,24.70
2022-08-25T19:46:32.190Z,24.70
2022-08-25T19:49:07.334Z,24.68
2022-08-25T19:51:40.031Z,24.63
2022-08-25T19:54:09.222Z,24.58
2022-08-25T19:56:38.464Z,24.55
2022-08-25T19:59:11.276Z,24.52
2022-08-25T20:01:38.815Z,24.50
2022-08-25T20:04:07.122Z,24.48
2022-08-25T20:06:33.805Z,24.46
2022-08-25T20:09:00.835Z,24.44
2022-08-25T20:11:29.026Z,24.43
2022-08-25T20:14:00.351Z,24.39
2022-08-25T20:16:30.525Z,24.35
2022-08-25T20:18:57.245Z,24.32
2022-08-25T20:21:24.223Z,24.34
2022-08-25T20:24:09.352Z,24.32
2022-08-25T20:26:36.326Z,24.30
2022-08-25T20:29:05.172Z,24.22
2022-08-25T20:31:32.594Z,24.20
2022-08-25T20:34:01.043Z,24.17
2022-08-25T20:36:29.922Z,24.12
2022-08-25T20:38:59.140Z,24.13
2022-08-25T20:41:26.044Z,24.09
2022-08-25T20:43:52.827Z,24.06
2022-08-25T20:46:19.743Z,24.06
2022-08-25T20:48:47.036Z,24.04
2022-08-25T20:51:15.836Z,24.03
2022-08-25T20:53:45.833Z,24.03
2022-08-25T20:56:16.484Z,24.03
2022-08-25T20:58:43.707Z,24.00
2022-08-25T21:01:22.931Z,23.95
2022-08-25T21:03:50.891Z,23.93
2022-08-25T21:06:17.767Z,23.90
2022-08-25T21:08:46.688Z,23.87
2022-08-25T21:11:18.146Z,23.80
2022-08-25T21:13:45.915Z,23.78
2022-08-25T21:16:12.595Z,23.75
2022-08-25T21:18:44.223Z,23.74
2022-08-25T21:21:16.682Z,23.73
2022-08-25T21:23:47.413Z,23.69
2022-08-25T21:26:16.222Z,23.68
2022-08-25T21:28:47.726Z,23.64
2022-08-25T21:31:16.202Z,23.61
2022-08-25T21:33:45.834Z,23.60
2022-08-25T21:36:14.535Z,23.57
2022-08-25T21:38:42.253Z,23.55
2022-08-25T21:41:15.449Z,23.51
2022-08-25T21:43:42.415Z,23.50
2022-08-25T21:46:14.675Z,23.49
2022-08-25T21:48:41.826Z,23.48
2022-08-25T21:51:11.987Z,23.47
2022-08-25T21:53:38.786Z,23.45
2022-08-25T21:56:07.591Z,23.44
2022-08-25T21:58:36.274Z,23.44
2022-08-25T22:01:29.159Z,23.42
2022-08-25T22:03:55.901Z,23.37
2022-08-25T22:06:23.186Z,23.34
2022-08-25T22:08:50.659Z,23.32
2022-08-25T22:11:18.130Z,23.30
2022-08-25T22:13:47.903Z,23.27
2022-08-25T22:16:21.532Z,23.24
2022-08-25T22:18:49.016Z,23.19
2022-08-25T22:21:19.057Z,23.18
2022-08-25T22:23:45.816Z,23.15
2022-08-25T22:26:15.539Z,23.11
2022-08-25T22:28:46.577Z,23.11
2022-08-25T22:31:14.784Z,23.07
2022-08-25T22:33:50.526Z,23.05
2022-08-25T22:36:18.425Z,23.03
2022-08-25T22:38:45.946Z,22.99
2022-08-25T22:41:13.503Z,23.01
2022-08-25T22:43:51.203Z,22.98
2022-08-25T22:46:21.132Z,22.96
2022-08-25T22:48:50.357Z,22.93
2022-08-25T22:51:21.540Z,22.93
2022-08-25T22:53:49.137Z,22.92
2022-08-25T22:56:18.023Z,22.89
2022-08-25T22:58:51.819Z,22.88
2022-08-25T23:01:20.153Z,22.86
2022-08-25T23:03:47.588Z,22.85
2022-08-25T23:06:24.593Z,22.79
2022-08-25T23:08:53.776Z,22.73
2022-08-25T23:11:21.693Z,22.68
2022-08-25T23:13:48.739Z,22.64
2022-08-25T23:16:15.947Z,22.62
2022-08-25T23:18:44.721Z,22.59
2022-08-25T23:21:31.549Z,22.56
2022-08-25T23:24:05.753Z,22.54
2022-08-25T23:26:36.383Z,22.51
2022-08-25T23:29:17.877Z,22.49
2022-08-25T23:31:46.709Z,22.43
2022-08-25T23:34:15.031Z,22.39
2022-08-25T23:36:41.823Z,22.38
2022-08-25T23:39:09.251Z,22.38
2022-08-25T23:41:36.879Z,22.35
2022-08-25T23:44:05.450Z,22.38
2022-08-25T23:46:35.094Z,22.37
2022-08-25T23:49:02.583Z,22.32
2022-08-25T23:51:33.665Z,22.26
2022-08-25T23:54:05.937Z,22.22
2022-08-25T23:56:34.465Z,22.23
2022-08-25T23:59:02.795Z,22.20
